Time;durP1;ratioP1;P1;durP2;ratioP2;P2;SDS_P1;SDS_P2;PMS_P1;PMS_P2;Temp;Humidity;BMP_temperature;BMP_pressure;BME280_temperature;BME280_humidity;BME280_pressure;Samples;Min_cycle;Max_cycle;Signal;HPM_P1;HPM_P2
2023/10/15 00:00:43;;;;;;;;;;;;;;;10.52;100.00;98434.96;137324;1276;22315;-82
2023/10/15 00:04:09;;;;;;;;;;;;;;;10.51;100.00;98443.84;137262;1277;22426;-82
2023/10/15 00:07:10;;;;;;;;;;;;;;;10.51;100.00;98447.83;137319;1271;22332;-82
2023/10/15 00:13:52;;;;;;;;;;;;;;;11.54;100.00;98465.14;137299;1277;22431;-82
2023/10/15 00:17:39;;;;;;;;;;;;;;;12.72;100.00;98468.64;137290;1272;22906;-82
2023/10/15 00:20:42;;;;;;;;;;;;;;;13.11;100.00;98467.16;137405;1277;22826;-82
2023/10/15 00:23:44;;;;;;;;;;;;;;;13.35;100.00;98465.83;137367;1277;22448;-81
2023/10/15 00:26:51;;;;;;;;;;;;;;;13.69;100.00;98457.41;137390;1277;22457;-82
2023/10/15 00:29:53;;;;;;;;;;;;;;;14.11;100.00;98451.88;137340;1277;22353;-81
2023/10/15 00:32:58;;;;;;;;;;;;;;;14.32;100.00;98454.66;137323;1277;22823;-84
2023/10/15 00:36:23;;;;;;;;;;;;;;;13.55;100.00;98456.81;137276;1275;22503;-82
2023/10/15 00:39:50;;;;;;;;;;;;;;;12.60;100.00;98460.80;137362;1256;22971;-82
2023/10/15 00:42:57;;;;;;;;;;;;;;;11.92;100.00;98464.52;137366;1276;22332;-82
2023/10/15 00:46:13;;;;;;;;;;;;;;;11.47;100.00;98464.09;137208;1276;22421;-82
2023/10/15 00:52:38;;;;;;;;;;;;;;;10.87;100.00;98457.58;137390;1276;22312;-83
2023/10/15 00:55:42;;;;;;;;;;;;;;;10.64;100.00;98451.03;137411;1276;22355;-83
2023/10/15 00:59:21;;;;;;;;;;;;;;;10.41;100.00;98455.06;137034;1276;22534;-84
2023/10/15 01:02:28;;;;;;;;;;;;;;;10.27;100.00;98455.82;137398;1276;22923;-84
2023/10/15 01:05:33;;;;;;;;;;;;;;;10.19;100.00;98464.45;137391;1276;22428;-83
2023/10/15 01:08:39;;;;;;;;;;;;;;;10.12;100.00;98466.81;137325;1273;22419;-83
2023/10/15 01:11:44;;;;;;;;;;;;;;;10.06;100.00;98466.95;137353;1276;22362;-82
2023/10/15 01:18:52;;;;;;;;;;;;;;;;;;;;;
2023/10/15 01:22:24;;;;;;;;;;;;;;;9.99;100.00;98482.54;137318;1278;22431;-82
2023/10/15 01:25:48;;;;;;;;;;;;;;;10.01;100.00;98472.98;137256;1272;22437;-83
2023/10/15 01:28:51;;;;;;;;;;;;;;;10.03;100.00;98475.78;137300;1277;22736;-82
2023/10/15 01:31:58;;;;;;;;;;;;;;;10.04;100.00;98477.53;137314;1277;22341;-83
2023/10/15 01:35:08;;;;;;;;;;;;;;;10.01;100.00;98484.28;137347;1277;22351;-83
2023/10/15 01:41:49;;;;;;;;;;;;;;;9.87;100.00;98465.73;137302;1277;22482;-83
2023/10/15 01:45:08;;;;;;;;;;;;;;;9.78;100.00;98461.66;137162;1272;22445;-83
2023/10/15 01:48:24;;;;;;;;;;;;;;;9.70;100.00;98456.55;137237;1278;22347;-83
2023/10/15 01:51:39;;;;;;;;;;;;;;;9.64;100.00;98456.33;137131;1278;22758;-83
2023/10/15 02:01:56;;;;;;;;;;;;;;;9.50;100.00;98465.89;137178;1278;22790;-83
2023/10/15 02:05:41;;;;;;;;;;;;;;;9.44;100.00;98463.74;136958;1278;22819;-83
2023/10/15 02:12:38;;;;;;;;;;;;;;;9.38;100.00;98458.99;136643;1264;22460;-83
2023/10/15 02:15:42;;;;;;;;;;;;;;;9.38;100.00;98448.58;136607;1282;22314;-81
2023/10/15 02:18:58;;;;;;;;;;;;;;;9.36;100.00;98455.32;136634;1283;22852;-81
2023/10/15 02:21:59;;;;;;;;;;;;;;;9.35;100.00;98463.64;136665;1280;22292;-83
2023/10/15 02:25:03;;;;;;;;;;;;;;;9.30;100.00;98472.63;136686;1283;22356;-82
2023/10/15 02:28:26;;;;;;;;;;;;;;;9.25;100.00;98475.17;136703;1265;22464;-83
2023/10/15 02:31:30;;;;;;;;;;;;;;;9.18;100.00;98473.36;136697;1282;22275;-82
2023/10/15 02:34:40;;;;;;;;;;;;;;;9.14;100.00;98480.26;136733;1282;22491;-82
2023/10/15 02:37:47;;;;;;;;;;;;;;;9.08;100.00;98470.64;136724;1282;22515;-82
2023/10/15 02:41:04;;;;;;;;;;;;;;;9.03;100.00;98472.48;136760;1282;22374;-84
2023/10/15 02:44:13;;;;;;;;;;;;;;;8.99;100.00;98471.39;136742;1282;22757;-82
2023/10/15 02:47:20;;;;;;;;;;;;;;;8.95;100.00;98461.64;136786;1282;22331;-83
2023/10/15 02:50:33;;;;;;;;;;;;;;;8.92;100.00;98453.45;136724;1282;23051;-82
2023/10/15 02:53:49;;;;;;;;;;;;;;;8.90;100.00;98458.97;136661;1282;22445;-82
2023/10/15 02:56:56;;;;;;;;;;;;;;;8.84;100.00;98469.66;136603;1282;22455;-83
2023/10/15 03:00:06;;;;;;;;;;;;;;;8.81;100.00;98470.83;136735;1282;22315;-82
2023/10/15 03:03:15;;;;;;;;;;;;;;;8.76;100.00;98477.70;136725;1282;22270;-82
2023/10/15 03:06:24;;;;;;;;;;;;;;;8.73;100.00;98481.48;136720;1282;22282;-82
2023/10/15 03:09:27;;;;;;;;;;;;;;;8.71;100.00;98470.53;136706;1282;22336;-84
2023/10/15 03:12:33;;;;;;;;;;;;;;;8.70;100.00;98469.64;136721;1282;22296;-81
2023/10/15 03:15:45;;;;;;;;;;;;;;;8.66;100.00;98468.52;136764;1282;22310;-83
2023/10/15 03:18:48;;;;;;;;;;;;;;;8.62;100.00;98471.59;136773;1282;22432;-83
2023/10/15 03:21:56;;;;;;;;;;;;;;;8.57;100.00;98484.19;136706;1282;22305;-82
2023/10/15 03:24:59;;;;;;;;;;;;;;;8.51;100.00;98493.47;136704;1282;22345;-82
2023/10/15 03:28:00;;;;;;;;;;;;;;;8.47;100.00;98498.59;136705;1282;22385;-82
2023/10/15 03:31:02;;;;;;;;;;;;;;;8.41;100.00;98493.66;136695;1282;22401;-82
2023/10/15 03:34:25;;;;;;;;;;;;;;;8.36;100.00;98498.61;136710;1282;22304;-82
2023/10/15 03:37:32;;;;;;;;;;;;;;;8.29;100.00;98497.62;136747;1282;22340;-82
2023/10/15 03:40:41;;;;;;;;;;;;;;;8.23;100.00;98499.42;136678;1282;22419;-82
2023/10/15 03:43:46;;;;;;;;;;;;;;;8.15;100.00;98506.41;136723;1275;22308;-83
2023/10/15 03:46:51;;;;;;;;;;;;;;;8.08;100.00;98516.00;136722;1282;22303;-82
2023/10/15 03:49:52;;;;;;;;;;;;;;;8.00;100.00;98519.84;136745;1282;22256;-82
2023/10/15 03:52:56;;;;;;;;;;;;;;;7.92;100.00;98520.75;136734;1282;22331;-82
2023/10/15 03:55:57;;;;;;;;;;;;;;;7.85;100.00;98519.41;136775;1282;22397;-82
2023/10/15 03:58:59;;;;;;;;;;;;;;;7.79;100.00;98510.63;136742;1282;22363;-82
2023/10/15 04:02:02;;;;;;;;;;;;;;;7.75;100.00;98512.10;136677;1282;22377;-83
2023/10/15 04:05:08;;;;;;;;;;;;;;;7.69;100.00;98510.45;136791;1282;22273;-81
2023/10/15 04:08:18;;;;;;;;;;;;;;;7.63;100.00;98510.50;136635;1282;22449;-83
2023/10/15 04:11:29;;;;;;;;;;;;;;;7.58;100.00;98504.70;136774;1282;22406;-83
2023/10/15 04:14:32;;;;;;;;;;;;;;;7.56;100.00;98506.73;136768;1282;22794;-84
2023/10/15 04:17:34;;;;;;;;;;;;;;;7.54;100.00;98510.85;136766;1282;22885;-82
2023/10/15 04:20:35;;;;;;;;;;;;;;;7.51;100.00;98509.94;136778;1282;22296;-83
2023/10/15 04:23:39;;;;;;;;;;;;;;;7.49;100.00;98510.95;136718;1278;22309;-82
2023/10/15 04:26:42;;;;;;;;;;;;;;;7.46;100.00;98514.69;136713;1282;22450;-82
2023/10/15 04:29:49;;;;;;;;;;;;;;;7.41;100.00;98508.36;136702;1282;22357;-83
2023/10/15 04:32:50;;;;;;;;;;;;;;;7.34;100.00;98510.84;136709;1282;22345;-83
2023/10/15 04:35:51;;;;;;;;;;;;;;;7.29;100.00;98514.20;136714;1282;22809;-82
2023/10/15 04:39:08;;;;;;;;;;;;;;;7.24;100.00;98514.96;136714;1278;22380;-82
2023/10/15 04:42:13;;;;;;;;;;;;;;;7.19;100.00;98522.13;136722;1282;22898;-82
2023/10/15 04:45:23;;;;;;;;;;;;;;;7.15;100.00;98526.38;136690;1282;22338;-82
2023/10/15 04:48:27;;;;;;;;;;;;;;;7.11;100.00;98534.44;136621;1282;22436;-83
2023/10/15 04:51:42;;;;;;;;;;;;;;;7.06;100.00;98532.25;136737;1282;22315;-83
2023/10/15 04:58:39;;;;;;;;;;;;;;;7.97;100.00;98528.94;136746;1282;22454;-82
2023/10/15 05:01:42;;;;;;;;;;;;;;;9.53;100.00;98523.58;136739;1278;22716;-83
2023/10/15 05:04:47;;;;;;;;;;;;;;;10.65;100.00;98523.23;136687;1281;22379;-82
2023/10/15 05:08:35;;;;;;;;;;;;;;;11.46;100.00;98535.52;136793;1282;22529;-83
2023/10/15 05:11:36;;;;;;;;;;;;;;;11.78;100.00;98542.41;136764;1282;22288;-82
2023/10/15 05:14:39;;;;;;;;;;;;;;;10.64;100.00;98552.63;136733;1282;22355;-82
2023/10/15 05:17:42;;;;;;;;;;;;;;;9.68;100.00;98559.89;136701;1282;22357;-82
2023/10/15 05:20:43;;;;;;;;;;;;;;;9.02;100.00;98564.82;136669;1282;22348;-83
2023/10/15 05:23:45;;;;;;;;;;;;;;;8.57;100.00;98573.16;136578;1268;22814;-83
2023/10/15 05:26:47;;;;;;;;;;;;;;;8.20;100.00;98572.16;136619;1282;22302;-83
2023/10/15 05:29:48;;;;;;;;;;;;;;;7.92;100.00;98577.77;136674;1278;22365;-83
2023/10/15 05:32:51;;;;;;;;;;;;;;;7.71;100.00;98578.02;136625;1282;22375;-83
2023/10/15 05:35:52;;;;;;;;;;;;;;;7.53;100.00;98576.99;136680;1282;22463;-83
2023/10/15 05:38:56;;;;;;;;;;;;;;;7.38;100.00;98587.59;136662;1282;22400;-83
2023/10/15 05:42:06;;;;;;;;;;;;;;;7.26;100.00;98583.36;136678;1282;22364;-83
2023/10/15 05:45:08;;;;;;;;;;;;;;;7.17;100.00;98584.38;136660;1282;22337;-83
2023/10/15 05:48:10;;;;;;;;;;;;;;;7.11;100.00;98583.05;136664;1282;22302;-83
2023/10/15 05:51:13;;;;;;;;;;;;;;;7.09;100.00;98588.36;136677;1282;22391;-83
2023/10/15 05:54:14;;;;;;;;;;;;;;;7.08;100.00;98596.47;136676;1282;22366;-83
2023/10/15 05:57:18;;;;;;;;;;;;;;;7.13;100.00;98597.46;136686;1282;22773;-82
2023/10/15 06:00:19;;;;;;;;;;;;;;;7.22;100.00;98602.51;136673;1282;22452;-83
2023/10/15 06:03:20;;;;;;;;;;;;;;;7.31;100.00;98605.28;136686;1282;22360;-83
2023/10/15 06:06:21;;;;;;;;;;;;;;;7.38;100.00;98607.86;136661;1282;22746;-83
2023/10/15 06:09:23;;;;;;;;;;;;;;;7.47;100.00;98603.17;136682;1282;22405;-83
2023/10/15 06:12:24;;;;;;;;;;;;;;;7.56;100.00;98605.63;136695;1282;22368;-82
2023/10/15 06:15:26;;;;;;;;;;;;;;;7.65;100.00;98605.29;136616;1282;22447;-83
2023/10/15 06:18:27;;;;;;;;;;;;;;;7.74;100.00;98604.40;136691;1282;22383;-83
2023/10/15 06:21:30;;;;;;;;;;;;;;;7.82;100.00;98613.06;136702;1282;22818;-83
2023/10/15 06:24:31;;;;;;;;;;;;;;;7.88;100.00;98614.59;136694;1282;22843;-83
2023/10/15 06:27:36;;;;;;;;;;;;;;;7.95;100.00;98614.89;136700;1276;22332;-83
2023/10/15 06:30:37;;;;;;;;;;;;;;;8.02;100.00;98613.45;136690;1282;22299;-83
2023/10/15 06:33:40;;;;;;;;;;;;;;;8.10;100.00;98617.41;136672;1282;22346;-83
2023/10/15 06:36:41;;;;;;;;;;;;;;;8.18;100.00;98621.55;136671;1282;22531;-82
2023/10/15 06:39:43;;;;;;;;;;;;;;;8.26;100.00;98616.67;136688;1282;22376;-83
2023/10/15 06:42:44;;;;;;;;;;;;;;;8.37;100.00;98621.02;136687;1282;22312;-82
2023/10/15 06:45:45;;;;;;;;;;;;;;;8.45;100.00;98625.17;136666;1282;23036;-83
2023/10/15 06:48:46;;;;;;;;;;;;;;;8.58;100.00;98625.02;136674;1282;22346;-83
2023/10/15 06:51:47;;;;;;;;;;;;;;;8.70;100.00;98632.36;136705;1282;22769;-83
2023/10/15 06:54:48;;;;;;;;;;;;;;;8.80;100.00;98628.19;136689;1282;22600;-83
2023/10/15 06:57:49;;;;;;;;;;;;;;;8.90;100.00;98628.67;136690;1282;22370;-83
2023/10/15 07:00:50;;;;;;;;;;;;;;;8.98;100.00;98627.95;136669;1282;22301;-83
2023/10/15 07:03:51;;;;;;;;;;;;;;;9.09;100.00;98627.92;136687;1282;22299;-83
2023/10/15 07:06:52;;;;;;;;;;;;;;;9.12;100.00;98632.48;136700;1282;22438;-83
2023/10/15 07:09:54;;;;;;;;;;;;;;;9.17;100.00;98631.34;136699;1282;22432;-83
2023/10/15 07:12:55;;;;;;;;;;;;;;;9.28;100.00;98628.70;136672;1282;22358;-82
2023/10/15 07:15:57;;;;;;;;;;;;;;;9.38;100.00;98633.00;136683;1282;22936;-84
2023/10/15 07:18:58;;;;;;;;;;;;;;;9.40;100.00;98628.69;136689;1282;22336;-84
2023/10/15 07:21:59;;;;;;;;;;;;;;;9.41;100.00;98627.66;136691;1282;22940;-84
2023/10/15 07:25:00;;;;;;;;;;;;;;;9.47;100.00;98631.91;136685;1282;22903;-84
2023/10/15 07:28:01;;;;;;;;;;;;;;;9.66;100.00;98630.44;136673;1282;22335;-83
2023/10/15 07:31:02;;;;;;;;;;;;;;;9.74;100.00;98643.05;136659;1282;22297;-84
2023/10/15 07:34:06;;;;;;;;;;;;;;;9.75;100.00;98639.92;136681;1282;22421;-84
2023/10/15 07:37:07;;;;;;;;;;;;;;;9.89;100.00;98635.56;136667;1282;22433;-83
2023/10/15 07:40:14;;;;;;;;;;;;;;;10.10;100.00;98639.62;136673;1282;22921;-82
2023/10/15 07:43:15;;;;;;;;;;;;;;;10.26;100.00;98641.55;136679;1282;22446;-82
2023/10/15 07:46:19;;;;;;;;;;;;;;;10.32;100.00;98642.48;136687;1282;22972;-83
2023/10/15 07:49:20;;;;;;;;;;;;;;;10.25;100.00;98637.02;136666;1282;22364;-82
2023/10/15 07:52:21;;;;;;;;;;;;;;;10.17;100.00;98632.39;136677;1282;22319;-82
2023/10/15 07:55:23;;;;;;;;;;;;;;;10.20;100.00;98633.84;136684;1282;22734;-84
2023/10/15 07:58:24;;;;;;;;;;;;;;;10.28;100.00;98640.00;136713;1282;22367;-83
2023/10/15 08:01:25;;;;;;;;;;;;;;;10.39;100.00;98636.99;136688;1282;22271;-83
2023/10/15 08:04:26;;;;;;;;;;;;;;;10.41;100.00;98630.92;136684;1279;22321;-83
2023/10/15 08:07:28;;;;;;;;;;;;;;;10.45;100.00;98631.67;136718;1282;22407;-83
2023/10/15 08:10:33;;;;;;;;;;;;;;;10.64;100.00;98629.40;136707;1282;22356;-83
2023/10/15 08:13:35;;;;;;;;;;;;;;;10.78;100.00;98630.02;136671;1282;22957;-82
2023/10/15 08:16:36;;;;;;;;;;;;;;;10.86;100.00;98631.13;136692;1282;22343;-83
2023/10/15 08:19:37;;;;;;;;;;;;;;;10.74;100.00;98635.05;136657;1282;22898;-82
2023/10/15 08:22:40;;;;;;;;;;;;;;;10.72;100.00;98629.98;136650;1282;22326;-82
2023/10/15 08:25:41;;;;;;;;;;;;;;;10.80;100.00;98636.66;136648;1282;22439;-81
2023/10/15 08:28:42;;;;;;;;;;;;;;;10.64;100.00;98632.02;136671;1282;22378;-82
2023/10/15 08:31:43;;;;;;;;;;;;;;;10.73;100.00;98629.81;136659;1282;22860;-82
2023/10/15 08:34:44;;;;;;;;;;;;;;;10.82;100.00;98630.92;136684;1282;22419;-83
2023/10/15 08:37:46;;;;;;;;;;;;;;;10.93;100.00;98639.02;136682;1282;22526;-82
2023/10/15 08:40:48;;;;;;;;;;;;;;;10.97;72.79;98636.43;136709;1282;22793;-83
2023/10/15 08:43:51;;;;;;;;;;;;;;;10.95;66.91;98630.85;136672;1276;22788;-83
2023/10/15 08:46:53;;;;;;;;;;;;;;;11.09;66.78;98640.34;136712;1282;22784;-83
2023/10/15 08:49:59;;;;;;;;;;;;;;;11.18;65.22;98640.58;136686;1282;22630;-83
2023/10/15 08:53:00;;;;;;;;;;;;;;;11.16;64.35;98642.30;136681;1282;22378;-83
2023/10/15 08:56:01;;;;;;;;;;;;;;;11.09;66.01;98635.48;136381;1282;412232;-83
2023/10/15 08:59:04;;;;;;;;;;;;;;;11.06;65.09;98645.55;136712;1282;22877;-83
2023/10/15 09:02:06;;;;;;;;;;;;;;;11.16;66.15;98636.21;136683;1282;22398;-83
2023/10/15 09:05:08;;;;;;;;;;;;;;;11.35;63.90;98648.89;136700;1282;22367;-83
2023/10/15 09:08:10;;;;;;;;;;;;;;;11.44;63.90;98632.91;136756;1282;22417;-83
2023/10/15 09:11:11;;;;;;;;;;;;;;;11.83;63.64;98628.39;136742;1282;22432;-84
2023/10/15 09:14:13;;;;;;;;;;;;;;;12.00;64.34;98624.96;136763;1282;22446;-83
2023/10/15 09:17:15;;;;;;;;;;;;;;;12.02;62.49;98626.54;136738;1282;22293;-83
2023/10/15 09:20:26;;;;;;;;;;;;;;;12.14;63.05;98625.53;136703;1282;22347;-83
2023/10/15 09:23:27;;;;;;;;;;;;;;;12.35;61.31;98625.59;136692;1282;22356;-83
2023/10/15 09:26:28;;;;;;;;;;;;;;;12.28;59.89;98629.06;136714;1282;22312;-84
2023/10/15 09:29:30;;;;;;;;;;;;;;;12.19;60.67;98629.75;136699;1282;22296;-83
2023/10/15 09:32:31;;;;;;;;;;;;;;;12.15;61.23;98633.58;136684;1282;22416;-84
2023/10/15 09:35:35;;;;;;;;;;;;;;;12.12;61.10;98638.78;136698;1282;22329;-83
2023/10/15 09:38:36;;;;;;;;;;;;;;;11.87;60.27;98634.86;136684;1282;22430;-83
2023/10/15 09:41:38;;;;;;;;;;;;;;;11.61;61.03;98638.73;136687;1282;22330;-84
2023/10/15 09:44:41;;;;;;;;;;;;;;;11.59;62.54;98627.58;136696;1282;22434;-84
2023/10/15 09:47:48;;;;;;;;;;;;;;;11.70;61.99;98622.22;136690;1282;22780;-84
2023/10/15 09:50:51;;;;;;;;;;;;;;;11.66;61.38;98619.77;136686;1282;22377;-84
2023/10/15 09:53:52;;;;;;;;;;;;;;;11.71;62.29;98620.66;136705;1282;22332;-84
2023/10/15 09:56:54;;;;;;;;;;;;;;;11.65;61.26;98620.11;136692;1282;22310;-84
2023/10/15 09:59:55;;;;;;;;;;;;;;;11.63;60.85;98624.98;136690;1282;22953;-84
2023/10/15 10:02:56;;;;;;;;;;;;;;;11.49;58.83;98629.10;136680;1282;22701;-84
2023/10/15 10:05:58;;;;;;;;;;;;;;;11.32;58.54;98629.02;136699;1282;22365;-84
2023/10/15 10:09:01;;;;;;;;;;;;;;;11.22;58.99;98626.48;136697;1282;22396;-83
2023/10/15 10:12:02;;;;;;;;;;;;;;;11.30;58.83;98629.70;136681;1282;22495;-84
2023/10/15 10:15:03;;;;;;;;;;;;;;;11.39;60.09;98622.96;136673;1282;22323;-84
2023/10/15 10:18:04;;;;;;;;;;;;;;;11.53;59.20;98619.54;136683;1282;22315;-84
2023/10/15 10:21:05;;;;;;;;;;;;;;;11.65;59.21;98616.61;136592;1282;22450;-84
2023/10/15 10:24:08;;;;;;;;;;;;;;;11.64;56.95;98617.66;136673;1282;22323;-84
2023/10/15 10:27:10;;;;;;;;;;;;;;;11.47;57.69;98610.98;136654;1282;22333;-84
2023/10/15 10:30:11;;;;;;;;;;;;;;;11.47;58.87;98613.05;136649;1282;22376;-84
2023/10/15 10:33:12;;;;;;;;;;;;;;;11.46;57.86;98611.49;136652;1282;22346;-84
2023/10/15 10:36:13;;;;;;;;;;;;;;;11.41;57.97;98604.33;136656;1282;22378;-83
2023/10/15 10:39:14;;;;;;;;;;;;;;;11.52;58.86;98600.71;136649;1282;22435;-83
2023/10/15 10:42:16;;;;;;;;;;;;;;;11.77;59.40;98600.31;136647;1282;22425;-84
2023/10/15 10:45:17;;;;;;;;;;;;;;;11.76;59.28;98602.91;136672;1282;22372;-83
2023/10/15 10:48:18;;;;;;;;;;;;;;;11.51;58.80;98601.05;136673;1282;22356;-84
2023/10/15 10:51:21;;;;;;;;;;;;;;;11.37;60.08;98600.82;136687;1282;22354;-85
2023/10/15 10:54:22;;;;;;;;;;;;;;;11.64;60.64;98593.97;136685;1282;22380;-84
2023/10/15 10:57:27;;;;;;;;;;;;;;;12.04;60.27;98588.52;136694;1282;22334;-84
2023/10/15 11:00:30;;;;;;;;;;;;;;;12.12;59.03;98600.58;136713;1282;22680;-84
2023/10/15 11:03:31;;;;;;;;;;;;;;;12.04;58.38;98597.42;136694;1282;22354;-84
2023/10/15 11:06:32;;;;;;;;;;;;;;;12.11;58.62;98594.12;136681;1282;22483;-84
2023/10/15 11:09:37;;;;;;;;;;;;;;;11.90;57.60;98599.13;136688;1282;22305;-84
2023/10/15 11:12:38;;;;;;;;;;;;;;;11.70;58.70;98599.73;136673;1282;22411;-84
2023/10/15 11:15:40;;;;;;;;;;;;;;;11.69;59.44;98594.67;136675;1282;22314;-85
2023/10/15 11:18:41;;;;;;;;;;;;;;;11.75;59.30;98597.14;136687;1282;22253;-84
2023/10/15 11:21:43;;;;;;;;;;;;;;;11.83;59.43;98592.48;136695;1282;22310;-84
2023/10/15 11:24:44;;;;;;;;;;;;;;;11.93;59.62;98587.11;136696;1282;22345;-84
2023/10/15 11:27:45;;;;;;;;;;;;;;;12.02;58.59;98586.08;136692;1282;22348;-84
2023/10/15 11:30:46;;;;;;;;;;;;;;;11.96;58.41;98587.98;136695;1282;22369;-84
2023/10/15 11:33:47;;;;;;;;;;;;;;;11.65;58.80;98591.52;136691;1282;22347;-84
2023/10/15 11:36:49;;;;;;;;;;;;;;;11.43;59.73;98586.73;136687;1282;23047;-83
2023/10/15 11:39:51;;;;;;;;;;;;;;;11.37;60.46;98584.96;136703;1282;22415;-84
2023/10/15 11:42:52;;;;;;;;;;;;;;;11.31;60.32;98583.38;136905;1275;22343;-84
2023/10/15 11:45:56;;;;;;;;;;;;;;;11.31;60.75;98577.45;136695;1270;22304;-84
2023/10/15 11:49:00;;;;;;;;;;;;;;;11.24;60.39;98581.39;136719;1282;22868;-84
2023/10/15 11:52:05;;;;;;;;;;;;;;;11.39;60.63;98570.51;136700;1276;22313;-84
2023/10/15 11:55:09;;;;;;;;;;;;;;;11.91;60.82;98566.52;136699;1282;23026;-84
2023/10/15 11:58:10;;;;;;;;;;;;;;;12.11;59.19;98571.10;136704;1282;22483;-84
2023/10/15 12:01:14;;;;;;;;;;;;;;;12.04;59.32;98570.73;136685;1282;22324;-84
2023/10/15 12:04:16;;;;;;;;;;;;;;;11.80;59.56;98576.42;136726;1282;22728;-84
2023/10/15 12:07:21;;;;;;;;;;;;;;;11.62;59.93;98571.29;136752;1282;22429;-84
2023/10/15 12:10:25;;;;;;;;;;;;;;;11.59;59.85;98574.08;136711;1282;22856;-84
2023/10/15 12:13:26;;;;;;;;;;;;;;;11.50;58.63;98576.31;136701;1282;22356;-85
2023/10/15 12:16:28;;;;;;;;;;;;;;;11.48;59.07;98579.09;136722;1282;22387;-84
2023/10/15 12:19:29;;;;;;;;;;;;;;;11.50;58.83;98579.80;136724;1282;22335;-84
2023/10/15 12:22:31;;;;;;;;;;;;;;;11.48;59.07;98577.69;136719;1282;22786;-83
2023/10/15 12:25:37;;;;;;;;;;;;;;;11.39;58.75;98575.05;136706;1282;22445;-84
2023/10/15 12:28:44;;;;;;;;;;;;;;;11.37;59.20;98571.20;136715;1282;22376;-84
2023/10/15 12:31:46;;;;;;;;;;;;;;;11.44;59.09;98570.54;136711;1282;22338;-84
2023/10/15 12:34:49;;;;;;;;;;;;;;;11.48;58.85;98569.52;136672;1282;22833;-85
2023/10/15 12:37:58;;;;;;;;;;;;;;;11.55;59.29;98570.92;136689;1282;22378;-85
2023/10/15 12:41:00;;;;;;;;;;;;;;;11.65;59.66;98565.73;136696;1282;22301;-85
2023/10/15 12:44:08;;;;;;;;;;;;;;;11.84;59.54;98564.05;136709;1282;22354;-84
2023/10/15 12:47:09;;;;;;;;;;;;;;;12.00;58.63;98554.51;136687;1282;22460;-84
2023/10/15 12:50:14;;;;;;;;;;;;;;;11.84;58.73;98555.69;136705;1282;22365;-84
2023/10/15 12:53:15;;;;;;;;;;;;;;;11.67;59.32;98552.66;136707;1282;22910;-85
2023/10/15 12:56:16;;;;;;;;;;;;;;;11.60;58.63;98556.13;136700;1282;22380;-85
2023/10/15 12:59:18;;;;;;;;;;;;;;;11.60;58.66;98555.27;136713;1279;22351;-84
2023/10/15 13:02:20;;;;;;;;;;;;;;;11.76;58.16;98553.91;136690;1282;22343;-84
2023/10/15 13:05:21;;;;;;;;;;;;;;;11.83;57.98;98555.88;136712;1282;22743;-84
2023/10/15 13:08:22;;;;;;;;;;;;;;;11.82;57.92;98556.22;136701;1282;22896;-84
2023/10/15 13:11:23;;;;;;;;;;;;;;;11.78;57.61;98557.94;136702;1282;22388;-84
2023/10/15 13:14:28;;;;;;;;;;;;;;;11.65;57.68;98554.92;136713;1278;22350;-84
2023/10/15 13:17:29;;;;;;;;;;;;;;;11.56;58.37;98554.55;136706;1282;22294;-84
2023/10/15 13:20:31;;;;;;;;;;;;;;;11.47;57.86;98559.75;136675;1282;22360;-84
2023/10/15 13:23:33;;;;;;;;;;;;;;;11.45;57.51;98562.52;136687;1282;22363;-84
2023/10/15 13:26:34;;;;;;;;;;;;;;;11.34;58.18;98558.13;136706;1282;22292;-83
2023/10/15 13:29:37;;;;;;;;;;;;;;;11.30;58.27;98564.72;136703;1282;22434;-84
2023/10/15 13:32:40;;;;;;;;;;;;;;;11.21;58.20;98566.57;136694;1282;22781;-84
2023/10/15 13:35:41;;;;;;;;;;;;;;;11.17;58.10;98565.85;136722;1282;22323;-84
2023/10/15 13:38:43;;;;;;;;;;;;;;;11.11;57.79;98565.13;136705;1282;22378;-85
2023/10/15 13:41:44;;;;;;;;;;;;;;;11.06;59.14;98556.05;136710;1282;22715;-84
2023/10/15 13:44:46;;;;;;;;;;;;;;;11.03;59.28;98558.64;136683;1282;22344;-84
2023/10/15 13:47:47;;;;;;;;;;;;;;;10.99;59.76;98554.96;136716;1282;22458;-84
2023/10/15 13:50:48;;;;;;;;;;;;;;;10.89;59.86;98553.52;136702;1282;22357;-84
2023/10/15 13:53:50;;;;;;;;;;;;;;;10.91;60.11;98548.65;136709;1279;22212;-85
2023/10/15 13:56:51;;;;;;;;;;;;;;;10.92;60.12;98550.39;136736;1282;22368;-85
2023/10/15 13:59:52;;;;;;;;;;;;;;;10.87;60.10;98552.29;136705;1282;22348;-84
2023/10/15 14:02:53;;;;;;;;;;;;;;;10.78;59.85;98554.31;136716;1282;22668;-84
2023/10/15 14:05:55;;;;;;;;;;;;;;;10.70;60.48;98555.83;136721;1277;22321;-84
2023/10/15 14:08:56;;;;;;;;;;;;;;;10.67;60.52;98560.52;136735;1282;22400;-84
2023/10/15 14:11:57;;;;;;;;;;;;;;;10.68;60.69;98557.20;136704;1282;22327;-85
2023/10/15 14:14:58;;;;;;;;;;;;;;;10.70;60.93;98557.05;136701;1282;22349;-84
2023/10/15 14:18:01;;;;;;;;;;;;;;;10.75;61.12;98558.48;136683;1282;22200;-84
2023/10/15 14:21:03;;;;;;;;;;;;;;;10.81;61.28;98554.67;136700;1281;22388;-85
2023/10/15 14:24:05;;;;;;;;;;;;;;;10.85;60.88;98557.67;136721;1282;22354;-85
2023/10/15 14:27:06;;;;;;;;;;;;;;;10.87;60.26;98552.27;136697;1282;22391;-84
2023/10/15 14:30:10;;;;;;;;;;;;;;;10.81;60.11;98554.33;136698;1282;22364;-85
2023/10/15 14:33:11;;;;;;;;;;;;;;;10.75;60.09;98553.42;136716;1282;22352;-85
2023/10/15 14:36:12;;;;;;;;;;;;;;;10.69;60.73;98553.21;136699;1282;22830;-84
2023/10/15 14:39:17;;;;;;;;;;;;;;;10.68;60.88;98555.64;136711;1282;22379;-84
2023/10/15 14:42:18;;;;;;;;;;;;;;;10.67;60.73;98559.46;136709;1282;22351;-85
2023/10/15 14:45:21;;;;;;;;;;;;;;;10.60;60.92;98555.94;136717;1282;22348;-84
2023/10/15 14:48:25;;;;;;;;;;;;;;;10.56;61.50;98551.55;136694;1282;22331;-84
2023/10/15 14:51:26;;;;;;;;;;;;;;;10.55;61.88;98552.25;136705;1282;22373;-84
2023/10/15 14:54:29;;;;;;;;;;;;;;;10.51;61.70;98554.99;136751;1282;22386;-85
2023/10/15 14:57:30;;;;;;;;;;;;;;;10.44;61.09;98552.34;136827;1282;22841;-83
2023/10/15 15:00:31;;;;;;;;;;;;;;;10.39;61.13;98547.59;136696;1282;22396;-84
2023/10/15 15:03:33;;;;;;;;;;;;;;;10.34;60.90;98549.09;136701;1282;22440;-84
2023/10/15 15:06:34;;;;;;;;;;;;;;;10.29;60.82;98553.40;136790;1282;22438;-84
2023/10/15 15:09:35;;;;;;;;;;;;;;;10.25;60.91;98557.02;136782;1282;22380;-83
2023/10/15 15:12:36;;;;;;;;;;;;;;;10.19;61.17;98553.14;136777;1282;22340;-84
2023/10/15 15:15:37;;;;;;;;;;;;;;;10.14;61.64;98553.08;136798;1282;22310;-84
2023/10/15 15:18:39;;;;;;;;;;;;;;;10.09;62.04;98554.41;136712;1282;22338;-84
2023/10/15 15:21:40;;;;;;;;;;;;;;;10.03;62.37;98556.44;136705;1282;22360;-84
2023/10/15 15:24:41;;;;;;;;;;;;;;;9.99;63.04;98554.67;136686;1282;22199;-85
2023/10/15 15:27:43;;;;;;;;;;;;;;;9.96;63.87;98552.20;136687;1282;22379;-84
2023/10/15 15:30:45;;;;;;;;;;;;;;;9.92;63.90;98557.56;136694;1282;22416;-84
2023/10/15 15:33:46;;;;;;;;;;;;;;;9.87;64.37;98559.77;136706;1282;22345;-84
2023/10/15 15:36:48;;;;;;;;;;;;;;;9.82;64.21;98561.45;136692;1282;22437;-84
2023/10/15 15:39:49;;;;;;;;;;;;;;;9.77;64.70;98567.84;136696;1282;22357;-84
2023/10/15 15:42:50;;;;;;;;;;;;;;;9.74;65.17;98566.59;136713;1282;22339;-84
2023/10/15 15:45:51;;;;;;;;;;;;;;;9.72;65.23;98572.11;136695;1282;22756;-85
2023/10/15 15:48:54;;;;;;;;;;;;;;;9.71;65.75;98569.33;136702;1282;22351;-83
2023/10/15 15:52:05;;;;;;;;;;;;;;;9.70;65.92;98574.52;136692;1282;22986;-85
2023/10/15 15:55:17;;;;;;;;;;;;;;;9.68;65.96;98579.20;136691;1282;22381;-85
2023/10/15 15:58:20;;;;;;;;;;;;;;;9.65;65.78;98583.16;136703;1282;22366;-86
2023/10/15 16:01:29;;;;;;;;;;;;;;;9.64;66.13;98587.66;136695;1282;22364;-85
2023/10/15 16:04:33;;;;;;;;;;;;;;;9.64;66.63;98595.84;136693;1282;22377;-86
2023/10/15 16:07:35;;;;;;;;;;;;;;;9.65;66.81;98602.10;136676;1282;22448;-84
2023/10/15 16:10:37;;;;;;;;;;;;;;;9.65;67.07;98609.73;136682;1282;22314;-84
2023/10/15 16:13:39;;;;;;;;;;;;;;;9.67;68.03;98623.15;136687;1282;22333;-84
2023/10/15 16:16:45;;;;;;;;;;;;;;;9.57;68.19;98625.45;136716;1282;22710;-86